Time;durP1;ratioP1;P1;durP2;ratioP2;P2;SDS_P1;SDS_P2;PMS_P1;PMS_P2;Temp;Humidity;BMP_temperature;BMP_pressure;BME280_temperature;BME280_humidity;BME280_pressure;Samples;Min_cycle;Max_cycle;Signal;HPM_P1;HPM_P2
2022/10/14 00:00:46;;;;;;;21.10;15.47;;;18.00;99.90;;;;;;10429153;28;20717;-80
2022/10/14 00:05:48;;;;;;;22.20;16.70;;;17.90;99.90;;;;;;10423666;28;20232;-80
2022/10/14 00:10:51;;;;;;;23.67;17.03;;;18.00;99.90;;;;;;10381908;28;20235;-81
2022/10/14 00:15:53;;;;;;;22.10;16.90;;;17.90;99.90;;;;;;10390552;28;20214;-80
2022/10/14 00:21:00;;;;;;;22.33;17.03;;;17.90;99.90;;;;;;10420250;28;20246;-80
2022/10/14 00:26:04;;;;;;;29.40;18.90;;;17.90;99.90;;;;;;10423733;28;20243;-81
2022/10/14 00:31:09;;;;;;;23.33;16.73;;;17.70;99.90;;;;;;10390255;28;20253;-80
2022/10/14 00:36:16;;;;;;;23.90;17.97;;;17.80;99.90;;;;;;10390041;28;20227;-80
2022/10/14 00:41:32;;;;;;;23.67;17.70;;;17.90;99.90;;;;;;10407556;28;20262;-80
2022/10/14 00:46:43;;;;;;;21.27;15.43;;;17.80;99.90;;;;;;10392814;28;20554;-80
2022/10/14 00:51:57;;;;;;;22.73;16.43;;;17.80;99.90;;;;;;10398422;28;20282;-80
2022/10/14 00:57:00;;;;;;;26.50;17.13;;;17.80;99.90;;;;;;10410835;28;20244;-80
2022/10/14 01:02:03;;;;;;;30.27;20.00;;;17.80;99.90;;;;;;10417065;28;20297;-81
2022/10/14 01:07:11;;;;;;;27.67;17.63;;;17.80;99.90;;;;;;10396918;28;20203;-80
2022/10/14 01:12:41;;;;;;;26.60;16.87;;;17.60;99.90;;;;;;10395993;28;20215;-80
2022/10/14 01:18:02;;;;;;;22.80;17.30;;;17.70;99.90;;;;;;10439515;28;20231;-81
2022/10/14 01:23:42;;;;;;;24.20;17.23;;;17.70;99.90;;;;;;10423132;28;20258;-80
2022/10/14 01:29:13;;;;;;;22.07;17.33;;;17.70;99.90;;;;;;10395245;28;20280;-80
2022/10/14 01:34:24;;;;;;;23.77;18.70;;;17.60;99.90;;;;;;10394909;28;20208;-80
2022/10/14 01:39:31;;;;;;;22.97;17.50;;;17.70;99.90;;;;;;10396127;28;20672;-80
2022/10/14 01:44:42;;;;;;;22.33;16.23;;;17.70;99.90;;;;;;10395783;28;20259;-80
2022/10/14 01:49:58;;;;;;;25.17;17.77;;;17.70;99.90;;;;;;10394334;28;20698;-80
2022/10/14 01:55:06;;;;;;;20.10;15.93;;;17.60;99.90;;;;;;10361482;28;20243;-81
2022/10/14 02:00:10;;;;;;;22.93;17.57;;;17.60;99.90;;;;;;10394612;28;20350;-80
2022/10/14 02:05:30;;;;;;;24.17;17.70;;;17.70;99.90;;;;;;10429263;28;20221;-80
2022/10/14 02:11:00;;;;;;;22.53;16.73;;;17.70;99.90;;;;;;10411036;28;20285;-80
2022/10/14 02:16:28;;;;;;;22.67;16.67;;;17.60;99.90;;;;;;10370541;28;20268;-80
2022/10/14 02:21:33;;;;;;;24.73;18.30;;;17.60;99.90;;;;;;10384161;28;20305;-80
2022/10/14 02:26:39;;;;;;;22.87;17.00;;;17.60;99.90;;;;;;10404417;28;20289;-80
2022/10/14 02:31:43;;;;;;;27.27;18.57;;;17.60;99.90;;;;;;10393968;28;20207;-80
2022/10/14 02:36:47;;;;;;;25.33;18.67;;;17.70;99.90;;;;;;10393916;28;20195;-80
2022/10/14 02:41:50;;;;;;;24.40;17.53;;;17.70;99.90;;;;;;10415381;28;20263;-80
2022/10/14 02:46:55;;;;;;;22.53;17.27;;;17.60;99.90;;;;;;10409969;28;20666;-80
2022/10/14 02:51:57;;;;;;;25.77;17.40;;;17.60;99.90;;;;;;10393741;28;20670;-80
2022/10/14 02:57:00;;;;;;;26.23;18.13;;;17.60;99.90;;;;;;10426070;28;20267;-80
2022/10/14 03:02:02;;;;;;;22.50;16.50;;;17.60;99.90;;;;;;10388142;28;20275;-80
2022/10/14 03:07:05;;;;;;;26.70;19.30;;;17.50;99.90;;;;;;10356980;28;20286;-81
2022/10/14 03:12:13;;;;;;;26.90;18.33;;;17.50;99.90;;;;;;10367167;28;20235;-80
2022/10/14 03:17:17;;;;;;;22.73;17.27;;;17.40;99.90;;;;;;10409469;28;20296;-80
2022/10/14 03:22:22;;;;;;;24.97;18.33;;;17.50;99.90;;;;;;10409063;28;20698;-80
2022/10/14 03:27:25;;;;;;;29.60;18.57;;;17.50;99.90;;;;;;10379725;28;20287;-80
2022/10/14 03:32:34;;;;;;;23.50;17.67;;;17.40;99.90;;;;;;10367195;28;20234;-80
2022/10/14 03:38:05;;;;;;;23.27;16.77;;;17.40;99.90;;;;;;10351941;28;20271;-80
2022/10/14 03:43:09;;;;;;;23.33;18.40;;;17.40;99.90;;;;;;10373137;28;20336;-80
2022/10/14 03:48:21;;;;;;;24.57;18.03;;;17.40;99.90;;;;;;10351816;28;20196;-80
2022/10/14 03:53:24;;;;;;;23.63;17.57;;;17.40;99.90;;;;;;10351315;28;20267;-80
2022/10/14 03:58:27;;;;;;;24.30;17.10;;;17.40;99.90;;;;;;10346415;28;20213;-80
2022/10/14 04:03:36;;;;;;;24.83;17.47;;;17.40;99.90;;;;;;10381304;28;20308;-83
2022/10/14 04:08:39;;;;;;;21.47;17.47;;;17.40;99.90;;;;;;10388274;28;20212;-81
2022/10/14 04:14:00;;;;;;;26.30;17.77;;;17.40;99.90;;;;;;10376737;28;20700;-81
2022/10/14 04:19:05;;;;;;;22.67;17.30;;;17.30;99.90;;;;;;10389856;28;20301;-80
2022/10/14 04:24:08;;;;;;;47.20;30.97;;;17.30;99.90;;;;;;10393837;28;20285;-81
2022/10/14 04:29:25;;;;;;;45.73;30.20;;;16.30;99.90;;;;;;10404248;28;20237;-80
2022/10/14 04:34:36;;;;;;;44.23;26.27;;;16.20;99.90;;;;;;10409078;28;20293;-80
2022/10/14 04:39:40;;;;;;;42.10;27.50;;;16.60;99.30;;;;;;10439353;28;20271;-80
2022/10/14 04:44:43;;;;;;;41.10;25.23;;;16.70;98.90;;;;;;10408137;28;20285;-80
2022/10/14 04:49:47;;;;;;;33.47;22.80;;;16.80;98.80;;;;;;10405069;28;20266;-80
2022/10/14 04:54:55;;;;;;;33.07;21.70;;;16.80;98.60;;;;;;10402938;28;20269;-80
2022/10/14 05:00:11;;;;;;;31.90;22.37;;;17.00;98.40;;;;;;10404576;28;20231;-80
2022/10/14 05:05:16;;;;;;;33.47;22.43;;;17.00;98.40;;;;;;10427017;28;20258;-80
2022/10/14 05:10:23;;;;;;;33.87;22.13;;;17.00;98.50;;;;;;10421500;28;20262;-80
2022/10/14 05:15:26;;;;;;;29.87;21.23;;;17.00;98.50;;;;;;10403179;28;20277;-81
2022/10/14 05:20:39;;;;;;;30.57;21.33;;;17.00;98.50;;;;;;10396981;28;20313;-80
2022/10/14 05:25:42;;;;;;;30.60;20.63;;;17.00;98.60;;;;;;10419585;28;20231;-80
2022/10/14 05:30:44;;;;;;;30.83;20.30;;;17.00;98.50;;;;;;10419491;28;20265;-80
2022/10/14 05:35:47;;;;;;;29.67;20.30;;;17.10;98.50;;;;;;10421975;28;20243;-80
2022/10/14 05:41:08;;;;;;;28.43;20.10;;;17.00;98.60;;;;;;10395388;28;20261;-80
2022/10/14 05:46:13;;;;;;;30.47;20.07;;;17.10;98.70;;;;;;10395427;28;20745;-80
2022/10/14 05:51:21;;;;;;;26.93;20.53;;;17.00;98.70;;;;;;10402313;28;20246;-80
2022/10/14 05:56:28;;;;;;;25.97;19.10;;;17.10;98.70;;;;;;10435378;28;20265;-80
2022/10/14 06:01:33;;;;;;;31.80;20.17;;;17.10;98.70;;;;;;10422783;28;20338;-80
2022/10/14 06:06:37;;;;;;;26.50;19.20;;;17.10;98.60;;;;;;10394518;28;20305;-81
2022/10/14 06:11:39;;;;;;;26.70;20.27;;;17.10;98.60;;;;;;10411135;28;20676;-80
2022/10/14 06:16:42;;;;;;;26.57;18.60;;;17.10;98.60;;;;;;10393799;28;20697;-80
2022/10/14 06:21:45;;;;;;;27.63;19.37;;;17.10;98.70;;;;;;10376329;28;20309;-80
2022/10/14 06:26:47;;;;;;;29.27;19.07;;;17.10;98.80;;;;;;10411599;28;20196;-80
2022/10/14 06:31:50;;;;;;;32.10;19.90;;;17.10;98.80;;;;;;10383123;28;20313;-80
2022/10/14 06:36:52;;;;;;;28.83;20.43;;;17.10;98.70;;;;;;10369934;28;20232;-81
2022/10/14 06:42:02;;;;;;;25.70;18.40;;;17.10;98.80;;;;;;10345872;28;20247;-80
2022/10/14 06:47:06;;;;;;;24.77;18.60;;;17.20;98.50;;;;;;10343317;28;20645;-80
2022/10/14 06:52:09;;;;;;;26.47;18.37;;;17.30;98.30;;;;;;10366861;28;20274;-80
2022/10/14 06:57:11;;;;;;;28.63;18.40;;;17.30;98.40;;;;;;10365329;28;20290;-80
2022/10/14 07:02:14;;;;;;;29.40;19.53;;;17.20;98.60;;;;;;10364505;28;20294;-81
2022/10/14 07:07:16;;;;;;;26.57;19.80;;;17.20;98.80;;;;;;10380241;28;20228;-80
2022/10/14 07:12:19;;;;;;;26.03;19.03;;;17.10;98.90;;;;;;10369635;28;20239;-82
2022/10/14 07:17:22;;;;;;;29.77;20.23;;;17.10;99.10;;;;;;10348522;28;20765;-82
2022/10/14 07:22:25;;;;;;;29.00;19.80;;;17.20;98.90;;;;;;10365721;28;20769;-82
2022/10/14 07:27:27;;;;;;;27.43;18.80;;;17.30;98.60;;;;;;10381302;28;20282;-82
2022/10/14 07:32:30;;;;;;;26.33;18.57;;;17.40;98.50;;;;;;10350554;28;20235;-82
2022/10/14 07:37:33;;;;;;;28.13;19.77;;;17.40;98.50;;;;;;10347726;28;20278;-82
2022/10/14 07:42:35;;;;;;;30.07;20.60;;;17.30;98.70;;;;;;10346157;28;20296;-83
2022/10/14 07:47:38;;;;;;;31.60;20.03;;;17.40;98.80;;;;;;10352306;28;20681;-82
2022/10/14 07:52:40;;;;;;;27.03;19.00;;;17.40;98.80;;;;;;10364884;28;20231;-82
2022/10/14 07:57:43;;;;;;;23.83;18.23;;;17.40;98.60;;;;;;10346402;28;20231;-86
2022/10/14 08:02:45;;;;;;;39.27;23.27;;;17.40;98.80;;;;;;10365330;28;20714;-81
2022/10/14 08:07:48;;;;;;;34.23;23.97;;;17.20;99.90;;;;;;10380228;28;20236;-80
2022/10/14 08:12:51;;;;;;;33.13;21.73;;;17.20;99.90;;;;;;10367121;28;20247;-80
2022/10/14 08:17:53;;;;;;;33.00;22.17;;;17.30;99.90;;;;;;10363172;28;20232;-80
2022/10/14 08:22:56;;;;;;;26.97;20.13;;;17.40;99.90;;;;;;10365037;28;20240;-80
2022/10/14 08:27:58;;;;;;;33.33;23.23;;;17.40;99.90;;;;;;10376568;28;20236;-80
2022/10/14 08:33:01;;;;;;;27.67;17.70;;;17.40;99.90;;;;;;10363651;28;20733;-80
2022/10/14 08:38:03;;;;;;;27.50;17.90;;;17.30;99.90;;;;;;10344866;28;20287;-80
2022/10/14 08:43:29;;;;;;;37.30;26.63;;;17.40;99.90;;;;;;10366628;28;20258;-81
2022/10/14 08:48:34;;;;;;;21.77;16.93;;;17.50;99.90;;;;;;10344591;28;20275;-81
2022/10/14 08:53:45;;;;;;;26.03;17.70;;;17.50;99.90;;;;;;10345493;28;20713;-81
2022/10/14 08:58:53;;;;;;;32.47;19.27;;;17.60;99.90;;;;;;10344352;28;20264;-82
2022/10/14 09:04:04;;;;;;;28.67;19.67;;;17.40;99.90;;;;;;10363578;28;20247;-82
2022/10/14 09:09:34;;;;;;;21.47;16.90;;;17.30;99.90;;;;;;10359862;28;20236;-81
2022/10/14 09:14:44;;;;;;;24.20;17.33;;;17.50;99.90;;;;;;10349862;28;20242;-82
2022/10/14 09:19:53;;;;;;;23.70;16.93;;;17.50;99.90;;;;;;10370950;28;20236;-81
2022/10/14 09:24:57;;;;;;;33.10;22.10;;;17.60;99.90;;;;;;10355062;28;20750;-82
2022/10/14 09:30:03;;;;;;;20.33;16.63;;;17.60;99.90;;;;;;10369368;28;20239;-82
2022/10/14 09:35:25;;;;;;;21.43;15.53;;;17.50;99.90;;;;;;10369177;28;20238;-82
2022/10/14 09:40:43;;;;;;;20.90;17.20;;;17.60;99.90;;;;;;10349844;28;20235;-82
2022/10/14 09:46:06;;;;;;;22.33;16.13;;;17.70;99.90;;;;;;10381150;28;20329;-82
2022/10/14 09:51:20;;;;;;;22.20;15.90;;;17.50;99.90;;;;;;10367104;28;20232;-82
2022/10/14 09:56:38;;;;;;;25.17;17.27;;;17.70;99.90;;;;;;10351544;28;20234;-81
2022/10/14 10:01:56;;;;;;;33.80;22.57;;;17.70;99.90;;;;;;10314578;28;20377;-81
2022/10/14 10:07:05;;;;;;;29.10;19.87;;;15.20;99.90;;;;;;10318233;28;20224;-82
2022/10/14 10:12:45;;;;;;;48.73;25.10;;;15.30;99.90;;;;;;10283021;28;20237;-81
2022/10/14 10:17:49;;;;;;;17.37;12.73;;;15.00;99.90;;;;;;10144782;29;20319;-80
2022/10/14 10:22:51;;;;;;;23.27;15.23;;;15.60;99.90;;;;;;10163335;29;20286;-80
2022/10/14 10:27:58;;;;;;;24.17;14.77;;;17.10;99.90;;;;;;10152216;29;20243;-82
2022/10/14 10:33:23;;;;;;;27.60;14.80;;;17.10;99.90;;;;;;10163647;29;20243;-85
2022/10/14 10:38:50;;;;;;;14.70;11.50;;;17.10;99.90;;;;;;10163684;29;20706;-81
2022/10/14 10:44:21;;;;;;;29.17;15.83;;;17.50;99.90;;;;;;10161995;29;20357;-80
2022/10/14 10:50:03;;;;;;;15.57;11.53;;;17.20;99.90;;;;;;10194305;28;20250;-80
2022/10/14 10:55:36;;;;;;;14.97;10.77;;;17.70;99.90;;;;;;10281681;28;20234;-80
2022/10/14 11:01:00;;;;;;;21.37;13.73;;;17.90;99.90;;;;;;10322181;28;20705;-80
2022/10/14 11:12:01;;;;;;;17.73;12.20;;;17.50;99.90;;;;;;10352490;28;20286;-80
2022/10/14 11:12:02;;;;;;;24.87;13.50;;;17.60;99.90;;;;;;10363171;28;20225;-80
2022/10/14 11:17:13;;;;;;;17.87;10.73;;;17.80;99.90;;;;;;10362608;28;20224;-79
2022/10/14 11:22:20;;;;;;;21.00;12.90;;;18.10;99.90;;;;;;10367162;28;20764;-79
2022/10/14 11:27:43;;;;;;;21.70;12.30;;;17.90;99.90;;;;;;10349134;28;20238;-82
2022/10/14 11:33:21;;;;;;;21.93;13.87;;;18.00;99.90;;;;;;10378409;28;20263;-80
2022/10/14 11:38:47;;;;;;;22.00;14.87;;;18.00;99.90;;;;;;10278149;28;20587;-80
2022/10/14 11:44:00;;;;;;;13.40;9.83;;;17.30;99.90;;;;;;10277563;28;20249;-80
2022/10/14 11:49:08;;;;;;;21.40;15.50;;;17.50;99.90;;;;;;10278841;28;20239;-80
2022/10/14 11:54:23;;;;;;;14.33;10.63;;;17.90;99.90;;;;;;10278530;28;20249;-80
2022/10/14 11:59:39;;;;;;;11.97;9.73;;;18.00;99.90;;;;;;10278914;28;21090;-80
2022/10/14 12:05:09;;;;;;;14.10;11.07;;;18.00;99.90;;;;;;10279518;28;20316;-80
2022/10/14 12:10:21;;;;;;;17.23;11.57;;;18.00;99.90;;;;;;10280065;28;20292;-81
2022/10/14 12:15:25;;;;;;;28.77;14.97;;;18.10;99.90;;;;;;10356007;28;20263;-81
2022/10/14 12:20:35;;;;;;;20.07;12.83;;;18.10;99.90;;;;;;10354773;28;20270;-81
2022/10/14 12:26:03;;;;;;;13.37;9.53;;;18.00;99.90;;;;;;10359614;28;20275;-81
2022/10/14 12:31:34;;;;;;;16.33;10.17;;;18.20;99.90;;;;;;10382431;28;20236;-80
2022/10/14 12:36:38;;;;;;;15.03;10.87;;;18.10;99.90;;;;;;10379081;28;20230;-80
2022/10/14 12:42:00;;;;;;;20.57;14.07;;;17.70;99.90;;;;;;10362535;28;20228;-81
2022/10/14 12:47:04;;;;;;;18.63;10.90;;;17.80;99.90;;;;;;10037751;28;9999991;-81
2022/10/14 12:52:07;;;;;;;21.20;13.90;;;17.70;99.90;;;;;;10371662;28;20240;-82
2022/10/14 12:57:30;;;;;;;15.50;10.50;;;17.90;99.90;;;;;;10354369;28;20246;-82
2022/10/14 13:02:35;;;;;;;16.77;10.20;;;18.00;99.90;;;;;;10373076;28;20272;-82
2022/10/14 13:07:44;;;;;;;20.43;13.03;;;18.10;99.90;;;;;;10370654;28;20236;-82
2022/10/14 13:12:48;;;;;;;15.97;11.17;;;18.00;99.90;;;;;;10352464;28;20244;-81
2022/10/14 13:17:50;;;;;;;18.50;11.33;;;18.00;99.90;;;;;;10370064;28;20232;-82
2022/10/14 13:23:11;;;;;;;17.40;11.80;;;17.90;99.90;;;;;;10353271;28;20251;-81
2022/10/14 13:28:34;;;;;;;22.27;13.47;;;17.80;99.90;;;;;;10352192;28;20238;-81
2022/10/14 13:33:45;;;;;;;18.80;11.77;;;17.90;99.90;;;;;;10371613;28;20255;-81
2022/10/14 13:38:58;;;;;;;15.70;11.90;;;18.00;99.90;;;;;;10369426;28;20680;-81
2022/10/14 13:44:01;;;;;;;15.43;11.50;;;17.80;99.90;;;;;;10351304;28;20726;-81
2022/10/14 13:49:07;;;;;;;13.63;9.83;;;17.80;99.90;;;;;;10383620;28;20232;-81
2022/10/14 13:54:21;;;;;;;29.30;16.70;;;17.80;99.90;;;;;;10369086;28;20232;-80
2022/10/14 13:59:26;;;;;;;13.57;10.17;;;17.80;99.90;;;;;;10351699;28;20263;-81
2022/10/14 14:04:55;;;;;;;15.03;11.07;;;17.80;99.90;;;;;;10382873;28;20305;-81
2022/10/14 14:10:04;;;;;;;14.23;10.80;;;17.60;99.90;;;;;;10368739;28;20294;-82
2022/10/14 14:15:16;;;;;;;15.67;10.97;;;17.70;99.90;;;;;;10350929;28;20294;-82
2022/10/14 14:20:25;;;;;;;11.97;9.13;;;17.70;99.90;;;;;;10350947;28;20236;-81
2022/10/14 14:25:30;;;;;;;15.97;10.27;;;17.80;99.90;;;;;;10366585;28;20256;-81
2022/10/14 14:30:49;;;;;;;15.33;9.67;;;17.80;99.90;;;;;;10366398;28;20739;-81
2022/10/14 14:35:59;;;;;;;29.30;16.53;;;17.80;99.90;;;;;;10359729;28;20650;-81
2022/10/14 14:41:17;;;;;;;35.17;19.00;;;16.80;99.90;;;;;;10401920;28;20268;-80
2022/10/14 14:46:44;;;;;;;35.50;19.43;;;15.80;99.90;;;;;;10387670;28;20288;-80
2022/10/14 14:51:47;;;;;;;34.77;19.57;;;15.60;99.90;;;;;;10333834;28;20255;-81
2022/10/14 14:56:55;;;;;;;29.87;18.97;;;15.40;99.90;;;;;;10384170;28;20213;-81
2022/10/14 15:02:00;;;;;;;40.40;22.50;;;15.30;99.90;;;;;;10377409;28;20341;-82
2022/10/14 15:07:07;;;;;;;48.07;25.67;;;15.20;99.90;;;;;;10392130;28;20713;-82
2022/10/14 15:12:22;;;;;;;40.87;22.67;;;15.10;99.90;;;;;;10387540;28;20231;-82
2022/10/14 15:17:36;;;;;;;43.70;22.97;;;15.10;99.90;;;;;;10370311;28;20293;-81
2022/10/14 15:22:40;;;;;;;42.03;21.83;;;15.00;99.90;;;;;;10388037;28;20232;-82
2022/10/14 15:27:47;;;;;;;35.07;20.80;;;15.00;99.90;;;;;;10372063;28;20281;-82
2022/10/14 15:32:54;;;;;;;23.40;11.57;;;14.90;99.90;;;;;;10352638;28;20264;-81
2022/10/14 15:37:56;;;;;;;15.77;8.73;;;14.90;99.90;;;;;;10349099;28;20269;-82
2022/10/14 15:42:59;;;;;;;15.03;8.83;;;16.50;99.90;;;;;;10367837;28;20236;-81
2022/10/14 15:48:05;;;;;;;14.83;9.03;;;17.10;99.90;;;;;;10361250;28;20273;-81
2022/10/14 15:53:09;;;;;;;15.40;9.13;;;17.60;99.90;;;;;;10385085;28;20239;-81
2022/10/14 15:58:11;;;;;;;12.90;9.03;;;17.90;99.90;;;;;;10368080;28;20243;-81
2022/10/14 16:03:16;;;;;;;12.90;9.80;;;18.10;99.90;;;;;;10380380;28;20328;-81
2022/10/14 16:08:19;;;;;;;11.50;9.70;;;18.30;99.90;;;;;;10408611;28;20266;-80
2022/10/14 16:13:21;;;;;;;15.97;9.83;;;18.50;99.90;;;;;;10351653;28;20243;-80
2022/10/14 16:18:24;;;;;;;12.63;10.07;;;18.50;99.90;;;;;;10022713;28;10000111;-80
2022/10/14 16:23:33;;;;;;;13.00;9.13;;;18.60;99.90;;;;;;10375182;28;20239;-80
2022/10/14 16:28:35;;;;;;;12.10;9.43;;;18.60;99.90;;;;;;10391687;28;20266;-81
2022/10/14 16:33:38;;;;;;;13.07;9.33;;;18.70;99.90;;;;;;10387709;28;20627;-81
2022/10/14 16:38:47;;;;;;;14.83;10.10;;;18.70;99.90;;;;;;10331825;28;20279;-81
2022/10/14 16:43:50;;;;;;;11.87;10.00;;;18.70;99.90;;;;;;10377278;28;20275;-81
2022/10/14 16:48:53;;;;;;;14.83;10.17;;;18.70;99.90;;;;;;10372954;28;20280;-80
2022/10/14 16:53:57;;;;;;;13.33;10.53;;;18.70;99.90;;;;;;10371196;28;20232;-81
2022/10/14 16:59:00;;;;;;;14.07;11.00;;;18.70;99.90;;;;;;10378461;28;20260;-80
2022/10/14 17:04:02;;;;;;;13.13;10.00;;;18.70;99.90;;;;;;10369937;28;20244;-80
2022/10/14 17:09:05;;;;;;;16.47;12.00;;;18.70;99.90;;;;;;10371940;28;20728;-82
2022/10/14 17:14:11;;;;;;;13.73;10.43;;;18.60;99.90;;;;;;10370148;28;20243;-81
2022/10/14 17:19:13;;;;;;;13.13;10.77;;;18.40;99.90;;;;;;10378103;28;20290;-81
2022/10/14 17:24:16;;;;;;;22.00;14.50;;;18.40;99.90;;;;;;10369678;28;20278;-81
2022/10/14 17:29:19;;;;;;;14.17;10.30;;;18.40;99.90;;;;;;10353878;28;20223;-81
2022/10/14 17:34:24;;;;;;;21.10;12.50;;;18.30;99.90;;;;;;10369460;28;20278;-81
2022/10/14 17:39:26;;;;;;;18.57;13.17;;;18.40;99.90;;;;;;10351082;28;20242;-82
2022/10/14 17:44:32;;;;;;;18.10;14.40;;;18.20;99.90;;;;;;10352398;28;20283;-81
2022/10/14 17:49:35;;;;;;;18.67;13.40;;;18.10;99.90;;;;;;10380659;28;20304;-81
2022/10/14 17:54:38;;;;;;;14.53;10.63;;;17.90;99.90;;;;;;10370815;28;20227;-82
2022/10/14 17:59:40;;;;;;;13.90;11.13;;;18.10;99.90;;;;;;10368804;28;20260;-82
2022/10/14 18:04:42;;;;;;;14.93;11.00;;;18.20;99.90;;;;;;10371388;28;20247;-80
2022/10/14 18:09:45;;;;;;;15.20;11.03;;;18.20;99.90;;;;;;10353637;28;20235;-80
2022/10/14 18:14:48;;;;;;;14.57;11.73;;;18.20;99.90;;;;;;10390041;28;20254;-81
2022/10/14 18:19:51;;;;;;;17.17;13.10;;;18.10;99.90;;;;;;10333805;28;20235;-80
2022/10/14 18:24:53;;;;;;;59.10;30.93;;;18.10;99.90;;;;;;10370875;28;20244;-79
2022/10/14 18:29:56;;;;;;;50.13;31.63;;;13.00;99.90;;;;;;10371462;28;20197;-78
2022/10/14 18:34:59;;;;;;;70.70;36.27;;;12.10;99.90;;;;;;10353453;28;20219;-79
2022/10/14 18:40:02;;;;;;;63.73;34.70;;;12.00;99.90;;;;;;10383064;28;20298;-79
2022/10/14 18:45:04;;;;;;;63.33;35.07;;;11.90;99.90;;;;;;10364652;28;20243;-79
2022/10/14 18:50:07;;;;;;;74.03;37.67;;;11.90;99.90;;;;;;10361117;28;20224;-78
2022/10/14 18:55:09;;;;;;;60.00;33.03;;;12.00;99.90;;;;;;10358589;28;20848;-79
2022/10/14 19:00:12;;;;;;;62.77;33.57;;;11.80;99.90;;;;;;10342653;28;20231;-79
2022/10/14 19:05:16;;;;;;;53.63;30.93;;;11.90;99.90;;;;;;10352303;28;20312;-80
2022/10/14 19:10:19;;;;;;;51.50;29.03;;;12.10;99.90;;;;;;10374952;28;20231;-80
2022/10/14 19:15:25;;;;;;;48.33;29.47;;;11.90;99.90;;;;;;10368508;28;20299;-81
2022/10/14 19:20:30;;;;;;;64.13;30.43;;;12.00;99.90;;;;;;10350634;28;20293;-80
2022/10/14 19:25:35;;;;;;;55.33;30.07;;;11.80;99.90;;;;;;10349651;28;20316;-82
2022/10/14 19:30:37;;;;;;;61.93;32.30;;;11.40;99.90;;;;;;10370959;28;20232;-81
2022/10/14 19:35:39;;;;;;;53.77;30.17;;;11.30;99.90;;;;;;10344398;28;20244;-83
2022/10/14 19:40:42;;;;;;;63.93;32.33;;;11.40;99.90;;;;;;10378024;28;20371;-81
2022/10/14 19:45:44;;;;;;;57.27;34.13;;;11.50;99.90;;;;;;10380399;28;20254;-81
2022/10/14 19:50:51;;;;;;;67.73;35.47;;;11.60;99.90;;;;;;10335691;28;20237;-80
2022/10/14 19:56:04;;;;;;;59.37;34.97;;;11.60;99.90;;;;;;10366644;28;20240;-81
2022/10/14 20:01:13;;;;;;;65.53;37.00;;;11.70;99.90;;;;;;10369345;28;20259;-81
2022/10/14 20:06:19;;;;;;;66.13;34.17;;;11.60;99.90;;;;;;10369392;28;20223;-81
2022/10/14 20:11:23;;;;;;;115.63;56.50;;;11.50;99.90;;;;;;10359925;28;20263;-81
2022/10/14 20:16:26;;;;;;;88.40;44.90;;;11.40;99.90;;;;;;10375205;28;20208;-81
2022/10/14 20:21:29;;;;;;;74.73;39.47;;;11.10;99.90;;;;;;10395431;28;20282;-81
2022/10/14 20:26:32;;;;;;;75.57;38.13;;;10.80;99.90;;;;;;10367081;28;20250;-80
2022/10/14 20:31:34;;;;;;;67.87;36.80;;;10.70;99.90;;;;;;10362377;28;20748;-80
2022/10/14 20:36:37;;;;;;;55.83;32.73;;;10.50;99.90;;;;;;10334316;28;20211;-80
2022/10/14 20:41:39;;;;;;;67.07;35.77;;;10.50;99.90;;;;;;10342692;28;20274;-79
2022/10/14 20:46:42;;;;;;;73.63;39.83;;;10.60;99.90;;;;;;10361608;28;20268;-81
2022/10/14 20:51:44;;;;;;;78.43;42.40;;;10.70;99.90;;;;;;10373639;28;20270;-81
2022/10/14 20:56:48;;;;;;;76.13;41.47;;;10.80;99.90;;;;;;10387186;28;20605;-81
2022/10/14 21:01:50;;;;;;;73.77;40.60;;;10.80;99.90;;;;;;10359799;28;20282;-81
2022/10/14 21:06:53;;;;;;;73.27;41.00;;;10.70;99.90;;;;;;10401804;28;20308;-81
2022/10/14 21:11:55;;;;;;;79.17;44.57;;;10.90;99.90;;;;;;10356545;28;20311;-80
2022/10/14 21:16:58;;;;;;;80.73;45.77;;;11.00;99.90;;;;;;10410691;28;20261;-80
2022/10/14 21:22:02;;;;;;;75.50;44.90;;;11.00;99.90;;;;;;10363333;28;20242;-80
2022/10/14 21:27:05;;;;;;;77.60;45.97;;;11.00;99.90;;;;;;10388745;28;20250;-79
2022/10/14 21:32:07;;;;;;;83.80;49.10;;;11.00;99.90;;;;;;10381832;28;20224;-80
2022/10/14 21:37:10;;;;;;;90.17;50.37;;;10.90;99.90;;;;;;10383177;28;20213;-80
2022/10/14 21:42:13;;;;;;;90.43;50.53;;;10.70;99.90;;;;;;10365198;28;20221;-81
2022/10/14 21:47:15;;;;;;;94.70;53.87;;;10.60;99.90;;;;;;10396777;28;20233;-80
2022/10/14 21:52:18;;;;;;;94.37;53.07;;;10.60;99.90;;;;;;10348626;28;20265;-81
2022/10/14 21:57:21;;;;;;;88.90;51.03;;;10.60;99.90;;;;;;10347201;28;20667;-81
2022/10/14 22:02:23;;;;;;;96.37;52.30;;;10.40;99.90;;;;;;10390358;28;20280;-80
2022/10/14 22:07:26;;;;;;;93.27;53.87;;;10.40;99.90;;;;;;10353196;28;20716;-81
2022/10/14 22:12:29;;;;;;;99.23;54.87;;;10.50;99.90;;;;;;10372152;28;20675;-81
2022/10/14 22:17:31;;;;;;;93.10;53.17;;;10.50;99.90;;;;;;10372134;28;20237;-81
2022/10/14 22:22:34;;;;;;;97.57;54.37;;;10.60;99.90;;;;;;10392053;28;20930;-80
2022/10/14 22:27:36;;;;;;;90.30;53.40;;;10.60;99.90;;;;;;10375322;28;20261;-80
2022/10/14 22:32:39;;;;;;;96.33;51.57;;;10.50;99.90;;;;;;10354317;28;20233;-80
2022/10/14 22:37:41;;;;;;;90.20;52.30;;;10.50;99.90;;;;;;10359176;28;20306;-80
2022/10/14 22:42:44;;;;;;;91.07;52.47;;;10.50;99.90;;;;;;10385834;28;20737;-81
2022/10/14 22:47:52;;;;;;;89.57;50.93;;;10.50;99.90;;;;;;10372238;28;20257;-80
2022/10/14 22:52:54;;;;;;;93.90;53.50;;;10.40;99.90;;;;;;10393657;28;20233;-80
2022/10/14 22:57:57;;;;;;;84.70;50.37;;;10.10;99.90;;;;;;10373051;28;20242;-80
2022/10/14 23:02:59;;;;;;;91.37;53.27;;;10.00;99.90;;;;;;10368286;28;20306;-80
2022/10/14 23:08:03;;;;;;;97.20;53.10;;;9.90;99.90;;;;;;10370153;28;20246;-80
2022/10/14 23:13:05;;;;;;;86.03;51.10;;;9.70;99.90;;;;;;10352429;28;20692;-80
2022/10/14 23:18:08;;;;;;;86.97;49.77;;;9.70;99.90;;;;;;10384636;28;20262;-80
2022/10/14 23:23:10;;;;;;;94.03;49.20;;;9.60;99.90;;;;;;10406662;28;20621;-80
2022/10/14 23:28:13;;;;;;;93.30;50.03;;;9.60;99.90;;;;;;10392059;28;20255;-80
2022/10/14 23:33:16;;;;;;;80.87;47.23;;;9.40;99.90;;;;;;10382069;28;20206;-79
2022/10/14 23:38:18;;;;;;;82.77;45.97;;;9.40;99.90;;;;;;10333948;28;20575;-80
2022/10/14 23:43:21;;;;;;;90.07;46.97;;;9.30;99.90;;;;;;10409720;28;20263;-80
2022/10/14 23:48:24;;;;;;;79.00;46.50;;;9.50;99.90;;;;;;10409609;28;20255;-80
2022/10/14 23:53:27;;;;;;;77.37;46.80;;;9.50;99.90;;;;;;10374259;28;20636;-80
2022/10/14 23:58:30;;;;;;;76.03;43.40;;;9.40;99.90;;;;;;10397223;28;20235;-80
